Mountain Home A F B, Idaho
Current Conditions -  °F | °C
As of 7:58 PM on Friday 21 Nov 2014 (Local Time) from KMUO Reporting Station
Few Clouds Few Clouds  
Wind Chill: 29°   Ceiling: Unl
Heat Index: 37°   Visibility: 10mi
Dew Point: 37°   Wind: 14mph
Humidity: 99%   Direction: 110°ESE
Pressure: 29.89"   Gusts: NA
Location:  43.0093°N, 115.5883°W
Report Text: KMUO 220258Z AUTO 11012KT 10SM FEW090 03/03 A2989 RMK AO2 SLP147 T00290028 57016
Loading
Personal Weather Stations






























Interactive Weather Map New forecast layout! Learn more

10-Day Weather Forecast

Advertisements
Track Severe Weather on mobile